Time;durP1;ratioP1;P1;durP2;ratioP2;P2;SDS_P1;SDS_P2;PMS_P1;PMS_P2;Temp;Humidity;BMP_temperature;BMP_pressure;BME280_temperature;BME280_humidity;BME280_pressure;Samples;Min_cycle;Max_cycle;Signal;HPM_P1;HPM_P2
2022/06/06 00:00:10;;;;;;;10.15;3.67;;;;;;;;;;4961982;28;20055;-71
2022/06/06 00:02:56;;;;;;;11.90;3.63;;;;;;;;;;4962966;28;20137;-73
2022/06/06 00:05:22;;;;;;;8.80;3.65;;;;;;;;;;4963234;28;20058;-71
2022/06/06 00:07:48;;;;;;;9.63;3.92;;;;;;;;;;4964661;28;20043;-71
2022/06/06 00:10:14;;;;;;;9.68;4.00;;;;;;;;;;4964540;28;20054;-72
2022/06/06 00:12:40;;;;;;;12.30;3.95;;;;;;;;;;4966271;28;20063;-71
2022/06/06 00:15:07;;;;;;;12.13;4.68;;;;;;;;;;4963869;28;20074;-73
2022/06/06 00:17:32;;;;;;;10.05;4.20;;;;;;;;;;4964435;28;20414;-71
2022/06/06 00:19:59;;;;;;;13.45;4.60;;;;;;;;;;4966388;28;20125;-71
2022/06/06 00:22:24;;;;;;;10.93;4.60;;;;;;;;;;4968388;28;20046;-70
2022/06/06 00:24:50;;;;;;;16.02;5.50;;;;;;;;;;4967889;28;20658;-70
2022/06/06 00:27:16;;;;;;;13.60;5.25;;;;;;;;;;4967972;28;20104;-71
2022/06/06 00:29:42;;;;;;;16.13;5.93;;;;;;;;;;4969872;28;20493;-69
2022/06/06 00:34:53;;;;;;;8.75;5.50;;;;;;;;;;4968125;28;20941;-72
2022/06/06 00:37:23;;;;;;;11.65;5.43;;;;;;;;;;4967196;28;20061;-71
2022/06/06 00:39:50;;;;;;;19.15;6.25;;;;;;;;;;4971433;28;20741;-70
2022/06/06 00:42:21;;;;;;;20.67;5.93;;;;;;;;;;4964667;28;20050;-71
2022/06/06 00:45:26;;;;;;;12.90;5.35;;;;;;;;;;4967613;28;20097;-70
2022/06/06 00:47:57;;;;;;;14.77;5.78;;;;;;;;;;4968234;28;20132;-70
2022/06/06 00:50:47;;;;;;;15.63;5.82;;;;;;;;;;4964501;28;20122;-71
2022/06/06 00:53:15;;;;;;;12.65;5.30;;;;;;;;;;4966050;28;20867;-70
2022/06/06 00:55:48;;;;;;;14.45;5.60;;;;;;;;;;4960693;28;20521;-71
2022/06/06 00:58:20;;;;;;;10.75;5.07;;;;;;;;;;4965027;28;20112;-71
2022/06/06 01:00:48;;;;;;;15.65;6.03;;;;;;;;;;4979551;28;20629;-71
2022/06/06 01:03:16;;;;;;;16.05;5.35;;;;;;;;;;4965579;28;20066;-70
2022/06/06 01:05:45;;;;;;;11.05;5.32;;;;;;;;;;4963409;28;20059;-70
2022/06/06 01:08:11;;;;;;;17.33;5.07;;;;;;;;;;4964267;28;20055;-69
2022/06/06 01:10:37;;;;;;;13.35;4.90;;;;;;;;;;4963487;28;20062;-71
2022/06/06 01:13:04;;;;;;;13.82;5.03;;;;;;;;;;4964356;28;20051;-73
2022/06/06 01:15:40;;;;;;;12.13;4.50;;;;;;;;;;4966168;28;20531;-69
2022/06/06 01:18:09;;;;;;;10.77;4.90;;;;;;;;;;4966307;28;20626;-71
2022/06/06 01:20:53;;;;;;;12.98;4.55;;;;;;;;;;4967963;28;20050;-71
2022/06/06 01:23:38;;;;;;;;;;;;;;;;;;4964972;28;20059;-69
2022/06/06 01:26:33;;;;;;;14.40;4.72;;;;;;;;;;4963746;28;19922;-70
2022/06/06 01:29:09;;;;;;;11.90;4.82;;;;;;;;;;4964075;28;20116;-73
2022/06/06 01:31:44;;;;;;;11.18;4.30;;;;;;;;;;4965632;28;20051;-71
2022/06/06 01:34:12;;;;;;;12.65;4.70;;;;;;;;;;4964496;28;20717;-72
2022/06/06 01:36:40;;;;;;;10.05;4.03;;;;;;;;;;4965877;28;21932;-70
2022/06/06 01:39:09;;;;;;;8.35;4.40;;;;;;;;;;4963692;28;20077;-70
2022/06/06 01:41:45;;;;;;;11.13;4.28;;;;;;;;;;4967710;28;20050;-70
2022/06/06 01:44:29;;;;;;;10.25;4.70;;;;;;;;;;4945777;28;20575;-73
2022/06/06 01:46:58;;;;;;;11.57;4.32;;;;;;;;;;4960302;28;20051;-71
2022/06/06 01:49:24;;;;;;;10.35;4.60;;;;;;;;;;4965934;28;20067;-70
2022/06/06 01:52:02;;;;;;;11.88;4.22;;;;;;;;;;4963921;28;20091;-68
2022/06/06 01:54:28;;;;;;;11.70;4.50;;;;;;;;;;4963194;28;20034;-70
2022/06/06 01:56:55;;;;;;;13.57;4.28;;;;;;;;;;4963267;28;20054;-71
2022/06/06 01:59:21;;;;;;;9.18;4.05;;;;;;;;;;4966467;28;20057;-70
2022/06/06 02:01:47;;;;;;;10.55;4.47;;;;;;;;;;4965078;28;20567;-72
2022/06/06 02:04:13;;;;;;;10.60;4.50;;;;;;;;;;4966649;28;21093;-71
2022/06/06 02:06:40;;;;;;;8.65;4.20;;;;;;;;;;4962880;28;20178;-69
2022/06/06 02:09:07;;;;;;;11.20;4.22;;;;;;;;;;4966344;28;20047;-71
2022/06/06 02:11:33;;;;;;;15.63;5.10;;;;;;;;;;4964231;28;20046;-70
2022/06/06 02:13:59;;;;;;;14.60;4.32;;;;;;;;;;4963567;28;20069;-71
2022/06/06 02:16:25;;;;;;;8.52;4.10;;;;;;;;;;4964984;28;20050;-70
2022/06/06 02:18:51;;;;;;;6.53;3.40;;;;;;;;;;4964478;28;20046;-70
2022/06/06 02:21:17;;;;;;;9.55;3.42;;;;;;;;;;4966095;28;20042;-69
2022/06/06 02:23:43;;;;;;;7.55;3.63;;;;;;;;;;4962384;28;20144;-71
2022/06/06 02:26:10;;;;;;;7.78;3.25;;;;;;;;;;4965021;28;20382;-71
2022/06/06 02:28:37;;;;;;;14.48;3.65;;;;;;;;;;4965979;28;20109;-72
2022/06/06 02:31:04;;;;;;;9.35;3.33;;;;;;;;;;4961571;28;20035;-73
2022/06/06 02:33:30;;;;;;;5.68;3.00;;;;;;;;;;4966255;28;20055;-73
2022/06/06 02:35:55;;;;;;;7.18;3.13;;;;;;;;;;4966971;28;20058;-71
2022/06/06 02:38:22;;;;;;;8.85;3.00;;;;;;;;;;4966886;28;20101;-71
2022/06/06 02:40:48;;;;;;;7.25;2.88;;;;;;;;;;4965018;28;20098;-71
2022/06/06 02:43:14;;;;;;;5.82;2.80;;;;;;;;;;4963640;28;20503;-70
2022/06/06 02:45:43;;;;;;;6.18;2.95;;;;;;;;;;4960337;28;20053;-70
2022/06/06 02:48:09;;;;;;;6.38;3.08;;;;;;;;;;4961831;28;20163;-70
2022/06/06 02:50:35;;;;;;;9.75;3.15;;;;;;;;;;4963909;28;20085;-69
2022/06/06 02:53:01;;;;;;;7.07;3.00;;;;;;;;;;4966811;28;20112;-72
2022/06/06 02:55:27;;;;;;;8.38;3.30;;;;;;;;;;4963227;28;20047;-70
2022/06/06 02:57:53;;;;;;;8.30;2.70;;;;;;;;;;4969262;28;20073;-70
2022/06/06 03:00:26;;;;;;;6.43;2.92;;;;;;;;;;4963581;28;21557;-69
2022/06/06 03:02:53;;;;;;;7.10;3.10;;;;;;;;;;4966389;28;20408;-72
2022/06/06 03:05:19;;;;;;;8.68;2.65;;;;;;;;;;4965306;28;20058;-73
2022/06/06 03:08:20;;;;;;;8.05;2.78;;;;;;;;;;4967201;28;20059;-70
2022/06/06 03:11:10;;;;;;;8.23;2.33;;;;;;;;;;4964145;28;20112;-75
2022/06/06 03:14:04;;;;;;;6.65;2.10;;;;;;;;;;4967274;28;20066;-70
2022/06/06 03:22:51;;;;;;;10.68;3.50;;;;;;;;;;4966803;28;20062;-70
2022/06/06 03:25:28;;;;;;;7.70;3.25;;;;;;;;;;4964952;28;20165;-72
2022/06/06 03:27:56;;;;;;;8.63;3.10;;;;;;;;;;4969324;28;20082;-70
2022/06/06 03:30:35;;;;;;;8.85;3.20;;;;;;;;;;4968424;28;20047;-71
2022/06/06 03:33:27;;;;;;;9.20;2.75;;;;;;;;;;4966235;28;20113;-72
2022/06/06 03:36:06;;;;;;;6.65;2.65;;;;;;;;;;4967004;28;20464;-71
2022/06/06 03:38:50;;;;;;;7.00;2.13;;;;;;;;;;4963721;28;20047;-71
2022/06/06 03:41:29;;;;;;;5.25;2.28;;;;;;;;;;4966525;28;20499;-68
2022/06/06 03:44:00;;;;;;;7.05;2.35;;;;;;;;;;4968810;28;20231;-72
2022/06/06 03:46:53;;;;;;;5.80;2.35;;;;;;;;;;4966477;28;20382;-70
2022/06/06 03:49:38;;;;;;;6.15;2.00;;;;;;;;;;4969488;28;20411;-70
2022/06/06 03:52:21;;;;;;;4.43;2.08;;;;;;;;;;4963557;28;20055;-69
2022/06/06 03:55:01;;;;;;;10.00;2.72;;;;;;;;;;4965529;28;20077;-69
2022/06/06 03:57:28;;;;;;;6.93;2.10;;;;;;;;;;4964470;28;20176;-72
2022/06/06 04:00:00;;;;;;;5.13;2.10;;;;;;;;;;4966360;28;20059;-70
2022/06/06 04:02:35;;;;;;;5.60;2.40;;;;;;;;;;4963503;28;20047;-71
2022/06/06 04:05:06;;;;;;;7.15;2.30;;;;;;;;;;4963203;28;20054;-71
2022/06/06 04:07:33;;;;;;;5.53;2.08;;;;;;;;;;4965851;28;20074;-70
2022/06/06 04:10:00;;;;;;;5.63;2.20;;;;;;;;;;4964595;28;20117;-70
2022/06/06 04:12:44;;;;;;;5.43;2.08;;;;;;;;;;4965317;28;20399;-69
2022/06/06 04:15:53;;;;;;;5.15;1.80;;;;;;;;;;4960063;28;20390;-71
2022/06/06 04:18:19;;;;;;;4.05;2.03;;;;;;;;;;4962444;28;20101;-70
2022/06/06 04:20:57;;;;;;;7.13;2.55;;;;;;;;;;4964950;28;20055;-70
2022/06/06 04:23:44;;;;;;;6.82;2.22;;;;;;;;;;4963802;28;20050;-69
2022/06/06 04:26:16;;;;;;;5.90;2.17;;;;;;;;;;4964553;28;20107;-72
2022/06/06 04:29:08;;;;;;;6.53;2.15;;;;;;;;;;4964409;28;20072;-70
2022/06/06 04:31:55;;;;;;;6.38;2.38;;;;;;;;;;4963545;28;20058;-71
2022/06/06 04:34:43;;;;;;;6.25;2.03;;;;;;;;;;4960872;28;20054;-69
2022/06/06 04:37:40;;;;;;;10.90;2.50;;;;;;;;;;4964255;28;20054;-69
2022/06/06 04:40:35;;;;;;;9.98;2.88;;;;;;;;;;4966023;28;20046;-69
2022/06/06 04:43:19;;;;;;;7.50;2.58;;;;;;;;;;4962155;28;20046;-69
2022/06/06 04:45:52;;;;;;;9.02;2.30;;;;;;;;;;4963137;28;20574;-69
2022/06/06 04:48:20;;;;;;;6.93;2.50;;;;;;;;;;4966105;28;20397;-70
2022/06/06 04:50:46;;;;;;;13.40;2.83;;;;;;;;;;4962503;28;20062;-69
2022/06/06 04:53:18;;;;;;;11.45;3.20;;;;;;;;;;4964463;28;20408;-73
2022/06/06 04:55:46;;;;;;;7.85;2.60;;;;;;;;;;4963243;28;20381;-69
2022/06/06 04:58:15;;;;;;;6.65;2.67;;;;;;;;;;4968072;28;20061;-66
2022/06/06 05:00:42;;;;;;;7.90;2.75;;;;;;;;;;4966304;28;20149;-70
2022/06/06 05:03:08;;;;;;;11.77;3.00;;;;;;;;;;4963631;28;20042;-71
2022/06/06 05:05:47;;;;;;;7.05;2.50;;;;;;;;;;4957281;28;20055;-68
2022/06/06 05:08:25;;;;;;;8.23;2.55;;;;;;;;;;4964822;28;20091;-68
2022/06/06 05:11:12;;;;;;;8.75;2.47;;;;;;;;;;4966409;28;20047;-67
2022/06/06 05:13:59;;;;;;;7.82;2.20;;;;;;;;;;4963251;28;20058;-68
2022/06/06 05:16:32;;;;;;;12.07;2.90;;;;;;;;;;4959938;28;20051;-70
2022/06/06 05:19:32;;;;;;;5.70;2.30;;;;;;;;;;4960131;28;20043;-72
2022/06/06 05:22:17;;;;;;;6.80;2.40;;;;;;;;;;4962500;28;20560;-70
2022/06/06 05:25:00;;;;;;;9.85;2.47;;;;;;;;;;4960856;28;20472;-71
2022/06/06 05:27:41;;;;;;;17.35;2.60;;;;;;;;;;4967967;28;20046;-70
2022/06/06 05:30:28;;;;;;;10.65;2.80;;;;;;;;;;4964205;28;20517;-69
2022/06/06 05:33:01;;;;;;;9.13;2.42;;;;;;;;;;4964357;28;20455;-67
2022/06/06 05:35:27;;;;;;;12.45;2.58;;;;;;;;;;4958177;28;20058;-69
2022/06/06 05:38:05;;;;;;;6.25;2.60;;;;;;;;;;4959046;28;20281;-67
2022/06/06 05:40:55;;;;;;;7.50;2.88;;;;;;;;;;4965752;28;20837;-67
2022/06/06 05:43:52;;;;;;;7.28;2.55;;;;;;;;;;4959414;28;20080;-68
2022/06/06 05:46:35;;;;;;;6.97;2.53;;;;;;;;;;4967322;28;20127;-69
2022/06/06 05:49:19;;;;;;;13.23;2.83;;;;;;;;;;4967625;28;20560;-69
2022/06/06 05:52:12;;;;;;;14.90;3.10;;;;;;;;;;4965713;28;20063;-68
2022/06/06 05:55:02;;;;;;;9.38;3.08;;;;;;;;;;4964131;28;20400;-69
2022/06/06 05:57:44;;;;;;;9.43;2.92;;;;;;;;;;4966874;28;20039;-70
2022/06/06 06:00:41;;;;;;;8.95;2.95;;;;;;;;;;4964995;28;20046;-71
2022/06/06 06:03:19;;;;;;;9.52;2.63;;;;;;;;;;4967388;28;20048;-69
2022/06/06 06:05:58;;;;;;;12.80;3.22;;;;;;;;;;4964868;28;20439;-68
2022/06/06 06:08:36;;;;;;;11.35;3.42;;;;;;;;;;4964145;28;20046;-72
2022/06/06 06:11:23;;;;;;;9.65;2.92;;;;;;;;;;4961866;28;20047;-71
2022/06/06 06:14:22;;;;;;;12.25;3.10;;;;;;;;;;4959973;28;20173;-70
2022/06/06 06:16:53;;;;;;;12.88;2.80;;;;;;;;;;4960934;28;20535;-69
2022/06/06 06:19:25;;;;;;;13.65;2.88;;;;;;;;;;4963485;28;20615;-70
2022/06/06 06:21:55;;;;;;;9.75;2.80;;;;;;;;;;4962733;28;20051;-70
2022/06/06 06:24:49;;;;;;;10.75;3.03;;;;;;;;;;4958244;28;20065;-71
2022/06/06 06:27:16;;;;;;;10.07;5.85;;;;;;;;;;4961700;28;20390;-69
2022/06/06 06:29:42;;;;;;;7.90;2.97;;;;;;;;;;4963754;28;20047;-71
2022/06/06 06:32:45;;;;;;;9.07;2.88;;;;;;;;;;4967849;28;20042;-72
2022/06/06 06:35:14;;;;;;;9.57;3.17;;;;;;;;;;4960033;28;20047;-70
2022/06/06 06:38:26;;;;;;;12.90;3.67;;;;;;;;;;4962627;28;20509;-70
2022/06/06 06:41:23;;;;;;;11.70;3.25;;;;;;;;;;4961441;28;21373;-63
2022/06/06 06:43:58;;;;;;;13.15;3.28;;;;;;;;;;4953088;28;20143;-72
2022/06/06 06:46:43;;;;;;;14.82;4.45;;;;;;;;;;4964666;28;20418;-69
2022/06/06 06:49:32;;;;;;;9.82;3.35;;;;;;;;;;4962593;28;20047;-70
2022/06/06 06:52:26;;;;;;;14.40;3.45;;;;;;;;;;4961227;28;20054;-68
2022/06/06 06:55:22;;;;;;;11.60;3.70;;;;;;;;;;4962346;28;20054;-67
2022/06/06 06:58:01;;;;;;;10.65;3.28;;;;;;;;;;4967658;28;20056;-68
2022/06/06 07:00:39;;;;;;;16.73;5.47;;;;;;;;;;4965543;28;20134;-69
2022/06/06 07:09:20;;;;;;;16.90;4.28;;;;;;;;;;4963863;28;20053;-70
2022/06/06 07:12:16;;;;;;;16.90;4.35;;;;;;;;;;4967530;28;20070;-75
2022/06/06 07:15:06;;;;;;;13.68;3.92;;;;;;;;;;4964281;28;20153;-71
2022/06/06 07:17:38;;;;;;;11.13;3.55;;;;;;;;;;4961837;28;20093;-68
2022/06/06 07:20:08;;;;;;;12.70;4.05;;;;;;;;;;4960944;28;20073;-70
2022/06/06 07:25:23;;;;;;;11.15;4.93;;;;;;;;;;4964861;28;20054;-69
2022/06/06 07:27:50;;;;;;;19.65;4.82;;;;;;;;;;4960339;28;20472;-68
2022/06/06 07:30:16;;;;;;;16.08;5.10;;;;;;;;;;4962569;28;20113;-70
2022/06/06 07:33:19;;;;;;;21.67;4.63;;;;;;;;;;4962817;28;20055;-70
2022/06/06 07:36:22;;;;;;;9.93;4.45;;;;;;;;;;4961387;28;20065;-71
2022/06/06 07:39:17;;;;;;;11.98;4.72;;;;;;;;;;4960503;28;20065;-73
2022/06/06 07:41:47;;;;;;;13.07;4.30;;;;;;;;;;4959065;28;20047;-69
2022/06/06 07:44:27;;;;;;;15.77;4.70;;;;;;;;;;4957742;28;20103;-68
2022/06/06 07:46:56;;;;;;;14.90;4.63;;;;;;;;;;4961318;28;20519;-72
2022/06/06 07:49:32;;;;;;;15.65;4.25;;;;;;;;;;4963675;28;20047;-72
2022/06/06 07:52:32;;;;;;;9.43;3.92;;;;;;;;;;4964815;28;20701;-70
2022/06/06 07:55:13;;;;;;;11.18;3.67;;;;;;;;;;4944735;28;20054;-71
2022/06/06 07:57:48;;;;;;;12.00;4.45;;;;;;;;;;4960747;28;20058;-72
2022/06/06 08:00:18;;;;;;;11.95;4.70;;;;;;;;;;4965300;28;20095;-71
2022/06/06 08:02:44;;;;;;;20.05;6.38;;;;;;;;;;4966952;28;20051;-71
2022/06/06 08:05:31;;;;;;;13.50;4.72;;;;;;;;;;4960935;28;20070;-74
2022/06/06 08:08:51;;;;;;;14.10;4.65;;;;;;;;;;4963805;28;20288;-73
2022/06/06 08:11:25;;;;;;;15.43;4.57;;;;;;;;;;4884852;29;20089;-72
2022/06/06 08:13:58;;;;;;;12.90;4.40;;;;;;;;;;4883615;29;20056;-71
2022/06/06 08:16:38;;;;;;;13.32;3.85;;;;;;;;;;4883988;29;20057;-72
2022/06/06 08:19:16;;;;;;;11.85;4.10;;;;;;;;;;4887312;29;20570;-72
2022/06/06 08:21:46;;;;;;;13.07;4.38;;;;;;;;;;4884178;29;20085;-72
2022/06/06 08:24:26;;;;;;;18.67;4.13;;;;;;;;;;4883429;29;20052;-69
2022/06/06 08:26:54;;;;;;;13.23;3.70;;;;;;;;;;4888732;29;20068;-74
2022/06/06 08:29:22;;;;;;;13.10;3.80;;;;;;;;;;4888452;29;20127;-74
2022/06/06 08:31:48;;;;;;;8.77;3.85;;;;;;;;;;4890184;29;20549;-73
2022/06/06 08:34:14;;;;;;;15.60;4.00;;;;;;;;;;4890352;29;20399;-75
2022/06/06 08:37:00;;;;;;;10.25;3.40;;;;;;;;;;4894251;29;20716;-74
2022/06/06 08:39:43;;;;;;;14.35;3.53;;;;;;;;;;4890068;29;20116;-72
2022/06/06 08:42:27;;;;;;;10.43;3.67;;;;;;;;;;4888661;29;20311;-75
2022/06/06 08:45:06;;;;;;;9.63;4.07;;;;;;;;;;4920168;28;20085;-74
2022/06/06 08:47:59;;;;;;;9.15;3.80;;;;;;;;;;4967007;28;20065;-71
2022/06/06 08:50:46;;;;;;;10.52;3.38;;;;;;;;;;4965356;28;20139;-74
2022/06/06 08:53:21;;;;;;;12.43;3.25;;;;;;;;;;4963378;28;20116;-72
2022/06/06 08:55:53;;;;;;;15.13;4.07;;;;;;;;;;4963681;28;20046;-69
2022/06/06 08:58:21;;;;;;;14.45;3.80;;;;;;;;;;4961925;28;20535;-71
2022/06/06 09:01:11;;;;;;;10.77;3.67;;;;;;;;;;4963774;28;20531;-71
2022/06/06 09:03:38;;;;;;;15.43;4.32;;;;;;;;;;4963101;28;20061;-73
2022/06/06 09:06:22;;;;;;;13.38;3.38;;;;;;;;;;4967401;28;20479;-71
2022/06/06 09:09:31;;;;;;;13.05;3.83;;;;;;;;;;4962986;28;20080;-72
2022/06/06 09:12:22;;;;;;;14.52;3.65;;;;;;;;;;4964338;28;20077;-72
2022/06/06 09:15:16;;;;;;;11.93;3.70;;;;;;;;;;4966041;28;20094;-72
2022/06/06 09:18:00;;;;;;;13.60;3.63;;;;;;;;;;4966488;28;20042;-70
2022/06/06 09:20:35;;;;;;;;;;;;;;;;;;4964759;28;20519;-71
2022/06/06 09:23:21;;;;;;;;;;;;;;;;;;4964649;28;20280;-73
2022/06/06 09:26:00;;;;;;;16.02;3.33;;;;;;;;;;4959329;28;19926;-74
2022/06/06 09:28:59;;;;;;;10.35;3.60;;;;;;;;;;4964844;28;20054;-72
2022/06/06 09:31:40;;;;;;;9.43;3.65;;;;;;;;;;4962186;28;20054;-72
2022/06/06 09:34:28;;;;;;;14.95;3.30;;;;;;;;;;4964066;28;20047;-73
2022/06/06 09:36:54;;;;;;;9.15;3.17;;;;;;;;;;4962669;28;20054;-72
2022/06/06 09:39:33;;;;;;;8.48;3.40;;;;;;;;;;4963250;28;20047;-74
2022/06/06 09:42:15;;;;;;;8.32;3.30;;;;;;;;;;4965637;28;20067;-76
2022/06/06 09:44:57;;;;;;;7.63;3.40;;;;;;;;;;4961553;28;20122;-76
2022/06/06 09:47:41;;;;;;;8.32;3.05;;;;;;;;;;4968690;28;20043;-73
2022/06/06 09:50:28;;;;;;;12.07;3.10;;;;;;;;;;4969699;28;20047;-74
2022/06/06 09:53:09;;;;;;;7.95;3.35;;;;;;;;;;4968801;28;20101;-74
2022/06/06 09:59:46;;;;;;;11.63;3.50;;;;;;;;;;4942370;28;20061;-72
2022/06/06 10:02:38;;;;;;;9.82;3.50;;;;;;;;;;4941221;28;20079;-74
2022/06/06 10:05:37;;;;;;;9.55;3.08;;;;;;;;;;4939353;28;20123;-73
2022/06/06 10:08:06;;;;;;;9.90;2.92;;;;;;;;;;4945149;29;20054;-77
2022/06/06 10:10:50;;;;;;;7.15;2.70;;;;;;;;;;4938672;28;20490;-73
2022/06/06 10:13:46;;;;;;;8.95;3.03;;;;;;;;;;4941659;28;20613;-74
2022/06/06 10:16:51;;;;;;;13.95;3.60;;;;;;;;;;4939788;28;20052;-72
2022/06/06 10:19:32;;;;;;;7.32;2.90;;;;;;;;;;4944645;28;20112;-74
2022/06/06 10:22:16;;;;;;;7.13;2.85;;;;;;;;;;4938015;28;20074;-72
2022/06/06 10:24:54;;;;;;;13.18;3.17;;;;;;;;;;4937854;29;20047;-73
2022/06/06 10:27:38;;;;;;;10.50;3.13;;;;;;;;;;4941738;29;20059;-73
2022/06/06 10:30:39;;;;;;;;;;;;;;;;;;4943251;28;20054;-74
2022/06/06 10:33:11;;;;;;;16.13;3.63;;;;;;;;;;4865855;29;19924;-76
2022/06/06 10:36:25;;;;;;;6.25;2.95;;;;;;;;;;4886159;29;20056;-78
2022/06/06 10:39:33;;;;;;;10.30;3.30;;;;;;;;;;4897684;29;20066;-77
2022/06/06 10:42:02;;;;;;;10.38;2.80;;;;;;;;;;4895592;29;20048;-78
2022/06/06 10:44:42;;;;;;;7.60;2.95;;;;;;;;;;4892157;29;20052;-76
2022/06/06 10:47:56;;;;;;;9.93;3.10;;;;;;;;;;4891862;29;20452;-80
2022/06/06 10:50:36;;;;;;;5.80;2.80;;;;;;;;;;4847082;29;20635;-75
2022/06/06 10:53:26;;;;;;;9.02;2.85;;;;;;;;;;4830518;29;20141;-78
2022/06/06 10:56:25;;;;;;;8.95;3.13;;;;;;;;;;4843984;29;20069;-74
2022/06/06 10:58:56;;;;;;;11.65;3.42;;;;;;;;;;4844586;29;20136;-76
2022/06/06 11:01:43;;;;;;;7.43;2.88;;;;;;;;;;4841322;29;20053;-76
2022/06/06 11:04:49;;;;;;;10.45;3.10;;;;;;;;;;4836124;29;20129;-79
2022/06/06 11:07:33;;;;;;;8.18;2.88;;;;;;;;;;4875813;29;20057;-78
2022/06/06 11:10:08;;;;;;;8.55;2.58;;;;;;;;;;4896321;29;20403;-76
2022/06/06 11:12:55;;;;;;;11.85;2.95;;;;;;;;;;4894761;29;20075;-78
2022/06/06 11:15:21;;;;;;;11.63;2.78;;;;;;;;;;4898524;29;20052;-77
2022/06/06 11:18:27;;;;;;;16.00;3.15;;;;;;;;;;4904786;29;20115;-78
2022/06/06 11:21:19;;;;;;;15.07;3.20;;;;;;;;;;4892396;29;20060;-77
2022/06/06 11:23:54;;;;;;;9.65;3.17;;;;;;;;;;4902708;29;20080;-76
2022/06/06 11:26:38;;;;;;;10.98;3.00;;;;;;;;;;4919327;28;20116;-77
2022/06/06 11:29:07;;;;;;;9.48;3.40;;;;;;;;;;4960301;28;20051;-76
2022/06/06 11:32:00;;;;;;;9.38;2.63;;;;;;;;;;4964759;28;20050;-75
2022/06/06 11:35:04;;;;;;;12.55;3.17;;;;;;;;;;4963599;28;20076;-77
2022/06/06 11:37:39;;;;;;;11.13;3.20;;;;;;;;;;4963394;28;20545;-76
2022/06/06 11:40:43;;;;;;;9.95;3.00;;;;;;;;;;4969573;28;20059;-75
2022/06/06 11:43:17;;;;;;;9.70;2.80;;;;;;;;;;4962232;28;20047;-76
2022/06/06 11:45:49;;;;;;;11.25;2.85;;;;;;;;;;4962614;28;20408;-76
2022/06/06 11:48:27;;;;;;;11.18;3.10;;;;;;;;;;4970216;28;20065;-73
2022/06/06 11:50:59;;;;;;;9.90;3.22;;;;;;;;;;4965204;28;20062;-76
2022/06/06 11:53:43;;;;;;;12.15;3.55;;;;;;;;;;4960076;28;20207;-75
2022/06/06 11:56:36;;;;;;;11.45;3.38;;;;;;;;;;4963311;28;20103;-77
2022/06/06 11:59:26;;;;;;;10.43;2.97;;;;;;;;;;4971573;28;20460;-77
2022/06/06 12:02:07;;;;;;;11.88;3.00;;;;;;;;;;4964249;28;20062;-76
2022/06/06 12:05:12;;;;;;;11.60;2.78;;;;;;;;;;4968378;28;20645;-74
2022/06/06 12:08:02;;;;;;;12.63;3.03;;;;;;;;;;4971129;28;20436;-78
2022/06/06 12:10:35;;;;;;;6.13;2.75;;;;;;;;;;4968649;28;20147;-75
2022/06/06 12:13:02;;;;;;;;;;;;;;;;;;4969221;28;20059;-76
2022/06/06 12:15:49;;;;;;;15.18;2.88;;;;;;;;;;4967729;28;19972;-75
2022/06/06 12:18:20;;;;;;;12.32;2.88;;;;;;;;;;4966092;28;20138;-75
2022/06/06 12:21:08;;;;;;;9.80;2.80;;;;;;;;;;4968658;28;20042;-75
2022/06/06 12:23:52;;;;;;;12.48;3.13;;;;;;;;;;4964998;28;20509;-76
2022/06/06 12:26:18;;;;;;;;;;;;;;;;;;4967730;28;20117;-78
2022/06/06 12:28:53;;;;;;;9.85;2.90;;;;;;;;;;4963595;28;19930;-79
2022/06/06 12:31:37;;;;;;;10.60;3.45;;;;;;;;;;4963754;28;20047;-78
2022/06/06 12:34:27;;;;;;;9.65;3.03;;;;;;;;;;4966453;28;20078;-77
2022/06/06 12:37:46;;;;;;;11.35;3.25;;;;;;;;;;4965514;28;20539;-78
2022/06/06 12:40:40;;;;;;;10.50;2.97;;;;;;;;;;4944248;28;20055;-76
2022/06/06 12:43:27;;;;;;;11.50;2.70;;;;;;;;;;4944033;28;20051;-77
2022/06/06 12:45:56;;;;;;;9.95;2.50;;;;;;;;;;4941582;28;20061;-77
2022/06/06 12:49:05;;;;;;;12.18;2.67;;;;;;;;;;4944667;28;20063;-75
2022/06/06 12:51:32;;;;;;;10.32;2.78;;;;;;;;;;4897442;29;20060;-80
2022/06/06 12:54:16;;;;;;;12.52;2.58;;;;;;;;;;4896738;29;20205;-76
2022/06/06 12:57:06;;;;;;;9.57;2.67;;;;;;;;;;4896138;29;20059;-77
2022/06/06 13:00:04;;;;;;;9.88;2.55;;;;;;;;;;4897039;29;20159;-77
2022/06/06 13:03:05;;;;;;;9.88;2.67;;;;;;;;;;4890317;29;20079;-76
2022/06/06 13:06:06;;;;;;;11.18;2.78;;;;;;;;;;4893032;29;20451;-75
2022/06/06 13:08:56;;;;;;;10.50;2.72;;;;;;;;;;4887443;29;20062;-76
2022/06/06 13:11:22;;;;;;;10.25;2.88;;;;;;;;;;4895873;29;20110;-78
2022/06/06 13:13:51;;;;;;;8.63;2.85;;;;;;;;;;4910570;29;20055;-76
2022/06/06 13:16:28;;;;;;;9.73;2.85;;;;;;;;;;4933647;29;20051;-71
2022/06/06 13:19:13;;;;;;;8.00;2.55;;;;;;;;;;4936079;29;20047;-74
2022/06/06 13:22:05;;;;;;;12.25;2.78;;;;;;;;;;4939486;29;20517;-72
2022/06/06 13:25:21;;;;;;;8.43;2.50;;;;;;;;;;4933814;29;20115;-79
2022/06/06 13:28:18;;;;;;;13.32;2.95;;;;;;;;;;4963594;28;20058;-73
2022/06/06 13:30:45;;;;;;;6.10;2.42;;;;;;;;;;4966934;28;20047;-79
2022/06/06 13:33:23;;;;;;;8.40;2.38;;;;;;;;;;4967953;28;20034;-78
2022/06/06 13:35:49;;;;;;;8.82;2.90;;;;;;;;;;4968585;28;20049;-79
2022/06/06 13:38:20;;;;;;;12.75;2.63;;;;;;;;;;4971413;28;20130;-76
2022/06/06 13:41:07;;;;;;;12.32;2.78;;;;;;;;;;4966612;28;20062;-71
2022/06/06 13:43:56;;;;;;;7.60;2.47;;;;;;;;;;4963605;28;20826;-74
2022/06/06 13:46:26;;;;;;;9.65;3.00;;;;;;;;;;4970581;28;20034;-75
2022/06/06 13:49:31;;;;;;;11.88;3.00;;;;;;;;;;4964492;28;20402;-76
2022/06/06 13:52:05;;;;;;;10.65;3.30;;;;;;;;;;4951359;28;20059;-76
2022/06/06 13:54:37;;;;;;;7.45;2.75;;;;;;;;;;4939387;28;20051;-73
2022/06/06 13:57:06;;;;;;;10.13;2.53;;;;;;;;;;4950951;28;20437;-77
2022/06/06 13:59:53;;;;;;;21.73;3.70;;;;;;;;;;4955050;28;20788;-75
2022/06/06 14:02:31;;;;;;;10.50;2.83;;;;;;;;;;4956418;28;20051;-75
2022/06/06 14:05:09;;;;;;;11.75;2.50;;;;;;;;;;4957387;28;20150;-75
2022/06/06 14:07:42;;;;;;;9.23;2.47;;;;;;;;;;4959612;28;20046;-76
2022/06/06 14:10:11;;;;;;;7.93;2.22;;;;;;;;;;4956598;28;20051;-76
2022/06/06 14:13:24;;;;;;;9.60;2.60;;;;;;;;;;4956038;28;20114;-76
2022/06/06 14:15:52;;;;;;;10.15;3.13;;;;;;;;;;4922588;28;20078;-74
2022/06/06 14:18:30;;;;;;;7.82;2.90;;;;;;;;;;4955229;28;20093;-72
2022/06/06 14:20:57;;;;;;;14.25;3.40;;;;;;;;;;4953468;28;20893;-74
2022/06/06 14:23:32;;;;;;;9.65;3.30;;;;;;;;;;4954738;28;20137;-72
2022/06/06 14:26:05;;;;;;;7.72;2.72;;;;;;;;;;4952578;28;20055;-73
2022/06/06 14:28:36;;;;;;;8.88;2.63;;;;;;;;;;4961064;28;20081;-73
2022/06/06 14:31:21;;;;;;;10.60;2.50;;;;;;;;;;4964253;28;20055;-75
2022/06/06 14:33:56;;;;;;;8.30;2.50;;;;;;;;;;4959826;28;20070;-75
2022/06/06 14:36:27;;;;;;;12.50;2.70;;;;;;;;;;4965307;28;20646;-74
2022/06/06 14:38:55;;;;;;;7.18;2.47;;;;;;;;;;4961431;28;20046;-75
2022/06/06 14:41:24;;;;;;;11.43;2.97;;;;;;;;;;4964022;28;20050;-78
2022/06/06 14:44:00;;;;;;;11.68;2.90;;;;;;;;;;4965634;28;20122;-74
2022/06/06 14:46:42;;;;;;;9.43;2.80;;;;;;;;;;4960179;28;20058;-73
2022/06/06 14:49:08;;;;;;;11.38;3.13;;;;;;;;;;4964279;28;20125;-76
2022/06/06 14:51:47;;;;;;;10.35;2.30;;;;;;;;;;4964208;28;20146;-77
2022/06/06 14:54:15;;;;;;;12.77;3.20;;;;;;;;;;4961332;28;20608;-75
2022/06/06 14:57:01;;;;;;;11.90;3.13;;;;;;;;;;4965249;28;20074;-78
2022/06/06 14:59:33;;;;;;;10.80;2.88;;;;;;;;;;4964548;28;20078;-75
2022/06/06 15:02:29;;;;;;;7.95;2.50;;;;;;;;;;4963166;28;20047;-77
2022/06/06 15:05:22;;;;;;;8.38;3.00;;;;;;;;;;4945455;28;20059;-75
2022/06/06 15:08:03;;;;;;;13.23;2.70;;;;;;;;;;4961308;28;20447;-75
2022/06/06 15:10:59;;;;;;;11.20;2.50;;;;;;;;;;4970489;28;20105;-76
2022/06/06 15:13:26;;;;;;;12.88;2.50;;;;;;;;;;4970186;28;20097;-77
2022/06/06 15:15:53;;;;;;;9.18;2.58;;;;;;;;;;4969516;28;20116;-75
2022/06/06 15:18:28;;;;;;;8.88;2.42;;;;;;;;;;4970537;28;20157;-78
2022/06/06 15:20:56;;;;;;;10.55;3.28;;;;;;;;;;4974239;28;20065;-77
2022/06/06 15:23:24;;;;;;;10.88;3.13;;;;;;;;;;4976114;28;20678;-77
2022/06/06 15:26:05;;;;;;;16.08;2.95;;;;;;;;;;4973655;28;20115;-77
2022/06/06 15:28:34;;;;;;;10.88;2.90;;;;;;;;;;4974507;28;20098;-76
2022/06/06 15:31:26;;;;;;;7.40;2.60;;;;;;;;;;4970519;28;20512;-74
2022/06/06 15:34:16;;;;;;;8.20;2.83;;;;;;;;;;4969257;28;20062;-75
2022/06/06 15:37:05;;;;;;;7.57;2.45;;;;;;;;;;4973009;28;20053;-76
2022/06/06 15:39:56;;;;;;;7.30;2.28;;;;;;;;;;4962830;28;20106;-78
2022/06/06 15:42:53;;;;;;;9.50;2.90;;;;;;;;;;4974695;28;20049;-79
2022/06/06 15:45:37;;;;;;;10.48;2.40;;;;;;;;;;4970880;28;20160;-76
2022/06/06 15:48:27;;;;;;;10.27;2.92;;;;;;;;;;4967905;28;20535;-77
2022/06/06 15:51:07;;;;;;;11.85;2.78;;;;;;;;;;4972500;28;20401;-76
2022/06/06 15:54:04;;;;;;;14.02;4.93;;;;;;;;;;4970141;28;20055;-79
2022/06/06 15:56:49;;;;;;;17.30;4.30;;;;;;;;;;4978108;28;20042;-78
2022/06/06 15:59:36;;;;;;;9.95;3.05;;;;;;;;;;4972851;28;20043;-77
2022/06/06 16:02:28;;;;;;;11.65;2.63;;;;;;;;;;4975365;28;20250;-79
2022/06/06 16:05:03;;;;;;;9.80;2.47;;;;;;;;;;4969851;28;20737;-76
2022/06/06 16:08:11;;;;;;;10.40;2.60;;;;;;;;;;4971939;28;20136;-77
2022/06/06 16:10:46;;;;;;;12.68;2.63;;;;;;;;;;4973096;28;20126;-78
2022/06/06 16:13:36;;;;;;;10.07;2.60;;;;;;;;;;4975391;28;20398;-76